createdAt,value
2018-05-14T00:02:44.723Z,87.10
2018-05-14T00:07:39.074Z,83.13
2018-05-14T00:12:34.220Z,84.00
2018-05-14T00:17:28.614Z,90.47
2018-05-14T00:22:28.018Z,97.90
2018-05-14T00:27:23.191Z,105.33
2018-05-14T00:32:17.568Z,107.47
2018-05-14T00:37:11.927Z,112.37
2018-05-14T00:42:06.359Z,123.37
2018-05-14T00:47:01.643Z,128.40
2018-05-14T00:51:56.036Z,143.10
2018-05-14T00:56:50.409Z,146.47
2018-05-14T01:02:00.309Z,149.30
2018-05-14T01:06:54.693Z,149.20
2018-05-14T01:11:49.218Z,154.17
2018-05-14T01:16:43.594Z,165.40
2018-05-14T01:21:37.959Z,163.83
2018-05-14T01:26:33.095Z,160.27
2018-05-14T01:31:28.576Z,163.23
2018-05-14T01:36:22.989Z,164.07
2018-05-14T01:41:17.357Z,162.20
2018-05-14T01:46:11.831Z,146.30
2018-05-14T01:51:06.979Z,153.70
2018-05-14T01:56:01.090Z,151.23
2018-05-14T02:00:55.540Z,149.80
2018-05-14T02:05:50.752Z,141.53
2018-05-14T02:10:45.274Z,142.60
2018-05-14T02:15:50.038Z,133.40
2018-05-14T02:20:44.421Z,131.40
2018-05-14T02:25:39.592Z,124.10
2018-05-14T02:30:34.053Z,125.93
2018-05-14T02:35:29.240Z,129.43
2018-05-14T02:40:23.851Z,135.00
2018-05-14T02:45:18.240Z,124.07
2018-05-14T02:50:13.646Z,119.53
2018-05-14T02:55:08.026Z,112.03
2018-05-14T03:00:02.531Z,110.80
2018-05-14T03:10:25.816Z,102.10
2018-05-14T03:15:20.959Z,88.87
2018-05-14T03:20:16.081Z,93.53
2018-05-14T03:25:10.484Z,96.30
2018-05-14T03:30:05.448Z,86.37
2018-05-14T03:34:59.840Z,97.80
2018-05-14T03:39:54.204Z,94.07
2018-05-14T03:44:49.362Z,95.30
2018-05-14T03:49:43.754Z,91.90
2018-05-14T03:54:38.126Z,97.67
2018-05-14T03:59:50.192Z,94.67
2018-05-14T04:05:01.554Z,88.83
2018-05-14T04:09:56.672Z,96.57
2018-05-14T04:15:08.223Z,94.80
2018-05-14T04:20:14.598Z,83.23
2018-05-14T04:25:09.060Z,87.30
2018-05-14T04:30:03.953Z,80.00
2018-05-14T04:34:59.917Z,82.00
2018-05-14T04:40:08.382Z,77.83
2018-05-14T04:45:14.362Z,78.97
2018-05-14T04:50:08.981Z,77.27
2018-05-14T04:55:05.132Z,82.27
2018-05-14T04:59:59.494Z,88.13
2018-05-14T05:04:53.862Z,83.13
2018-05-14T05:09:59.540Z,91.40
2018-05-14T05:14:54.680Z,108.83
2018-05-14T05:19:50.013Z,86.03
2018-05-14T05:24:44.754Z,88.57
2018-05-14T05:29:39.274Z,92.83
2018-05-14T05:34:34.034Z,92.00
2018-05-14T05:39:28.550Z,91.10
2018-05-14T05:44:22.934Z,83.07
2018-05-14T05:49:17.862Z,85.67
2018-05-14T05:54:12.213Z,82.33
2018-05-14T05:59:06.709Z,98.23
2018-05-14T06:04:01.144Z,82.77
2018-05-14T06:08:55.556Z,89.73
2018-05-14T06:13:50.715Z,87.80
2018-05-14T06:18:48.141Z,77.63
2018-05-14T06:23:42.522Z,84.47
2018-05-14T06:28:36.915Z,81.17
2018-05-14T06:33:31.286Z,78.80
2018-05-14T06:38:25.682Z,76.47
2018-05-14T06:43:20.083Z,75.57
2018-05-14T06:48:15.340Z,77.23
2018-05-14T06:53:09.762Z,73.97
2018-05-14T06:58:04.137Z,78.07
2018-05-14T07:02:58.538Z,74.77
2018-05-14T07:07:52.888Z,71.87
2018-05-14T07:12:47.452Z,75.27
2018-05-14T07:17:41.806Z,81.20
2018-05-14T07:22:37.000Z,75.77
2018-05-14T07:27:31.400Z,76.63
2018-05-14T07:32:25.780Z,74.93
2018-05-14T07:37:20.229Z,69.50
2018-05-14T07:42:15.626Z,71.57
2018-05-14T07:47:10.036Z,72.30
2018-05-14T07:52:05.348Z,79.30
2018-05-14T07:56:59.940Z,69.10
2018-05-14T08:01:55.152Z,70.70
2018-05-14T08:06:49.608Z,73.63
2018-05-14T08:11:44.132Z,69.40
2018-05-14T08:16:38.652Z,65.60
2018-05-14T08:21:33.804Z,70.47
2018-05-14T08:26:28.214Z,62.97
2018-05-14T08:31:22.645Z,63.70
2018-05-14T08:36:17.263Z,61.27
2018-05-14T08:41:11.642Z,66.10
2018-05-14T08:46:06.254Z,60.67
2018-05-14T08:51:00.625Z,56.20
2018-05-14T08:55:55.351Z,55.83
2018-05-14T09:00:49.859Z,49.10
2018-05-14T09:05:44.371Z,45.37
2018-05-14T09:10:38.767Z,42.83
2018-05-14T09:15:33.446Z,40.97
2018-05-14T09:20:28.096Z,37.53
2018-05-14T09:25:22.911Z,38.77
2018-05-14T09:30:17.608Z,35.07
2018-05-14T09:35:12.478Z,35.53
2018-05-14T09:40:07.148Z,35.97
2018-05-14T09:45:02.005Z,40.13
2018-05-14T09:49:56.692Z,41.33
2018-05-14T09:54:51.366Z,37.53
2018-05-14T09:59:46.075Z,40.50
2018-05-14T10:04:40.732Z,42.20
2018-05-14T10:09:35.901Z,44.40
2018-05-14T10:14:30.282Z,40.03
2018-05-14T10:19:24.654Z,44.27
2018-05-14T10:24:19.913Z,40.13
2018-05-14T10:29:14.342Z,36.17
2018-05-14T10:34:08.718Z,38.83
2018-05-14T10:39:03.103Z,40.17
2018-05-14T10:43:58.463Z,38.93
2018-05-14T10:48:53.614Z,38.87
2018-05-14T10:53:47.769Z,37.90
2018-05-14T10:58:42.262Z,43.33
2018-05-14T11:03:36.803Z,39.53
2018-05-14T11:08:31.173Z,37.70
2018-05-14T11:13:25.539Z,36.43
2018-05-14T11:18:20.173Z,36.40
2018-05-14T11:23:15.335Z,37.73
2018-05-14T11:28:09.733Z,35.77
2018-05-14T11:33:04.141Z,37.07
2018-05-14T11:37:58.545Z,36.73
2018-05-14T11:42:53.148Z,35.33
2018-05-14T11:47:47.508Z,35.73
2018-05-14T11:52:43.015Z,37.47
2018-05-14T11:57:37.175Z,36.03
2018-05-14T12:02:31.619Z,33.37
2018-05-14T12:07:39.786Z,34.70
2018-05-14T12:12:48.447Z,32.97
2018-05-14T12:17:56.737Z,31.33
2018-05-14T12:23:06.135Z,29.83
2018-05-14T12:28:01.351Z,31.03
2018-05-14T12:32:55.830Z,25.17
2018-05-14T12:37:50.190Z,23.93
2018-05-14T12:42:44.750Z,23.23
2018-05-14T12:47:39.110Z,24.27
2018-05-14T12:52:34.305Z,25.70
2018-05-14T12:57:28.661Z,21.10
2018-05-14T13:02:24.441Z,20.63
2018-05-14T13:07:19.371Z,21.97
2018-05-14T13:12:13.894Z,14.73
2018-05-14T13:17:08.759Z,15.13
2018-05-14T13:22:03.169Z,16.77
2018-05-14T13:26:57.866Z,12.60
2018-05-14T13:31:51.993Z,15.17
2018-05-14T13:36:46.533Z,13.23
2018-05-14T13:41:41.106Z,10.67
2018-05-14T13:46:35.469Z,11.07
2018-05-14T13:51:30.627Z,12.00
2018-05-14T13:56:25.239Z,11.40
2018-05-14T14:01:19.925Z,9.67
2018-05-14T14:06:27.282Z,9.43
2018-05-14T14:11:22.498Z,13.37
2018-05-14T14:16:17.081Z,7.90
2018-05-14T14:21:11.451Z,9.27
2018-05-14T14:26:06.601Z,8.80
2018-05-14T14:31:00.994Z,9.10
2018-05-14T14:35:55.749Z,5.80
2018-05-14T14:40:50.644Z,7.70
2018-05-14T14:45:45.472Z,10.93
2018-05-14T14:50:39.859Z,7.37
2018-05-14T14:55:34.227Z,12.10
2018-05-14T15:00:29.409Z,10.27
2018-05-14T15:05:24.693Z,6.70
2018-05-14T15:10:19.118Z,7.70
2018-05-14T15:15:13.538Z,4.53
2018-05-14T15:20:08.303Z,4.97
2018-05-14T15:25:02.836Z,8.67
2018-05-14T15:29:57.466Z,8.27
2018-05-14T15:34:59.271Z,6.23
2018-05-14T15:40:07.297Z,5.43
2018-05-14T15:45:15.711Z,4.33
2018-05-14T15:50:23.460Z,8.50
2018-05-14T15:55:31.935Z,5.57
2018-05-14T16:00:41.709Z,4.27
2018-05-14T16:05:46.028Z,7.23
2018-05-14T16:10:47.792Z,8.40
2018-05-14T16:15:42.204Z,6.80
2018-05-14T16:20:51.453Z,4.93
2018-05-14T16:25:46.095Z,6.07
2018-05-14T16:30:40.542Z,5.07
2018-05-14T16:35:34.950Z,4.07
2018-05-14T16:40:43.942Z,5.60
2018-05-14T16:45:45.626Z,8.97
2018-05-14T16:50:41.138Z,4.77
2018-05-14T16:55:35.645Z,8.37
2018-05-14T17:00:30.028Z,7.43
2018-05-14T17:05:25.176Z,5.27
2018-05-14T17:10:19.616Z,8.50
2018-05-14T17:15:14.921Z,5.67
2018-05-14T17:20:09.295Z,5.73
2018-05-14T17:25:04.274Z,7.53
2018-05-14T17:30:03.643Z,5.57
2018-05-14T17:34:58.028Z,6.43
2018-05-14T17:39:53.174Z,6.63
2018-05-14T17:44:47.715Z,15.53
2018-05-14T17:49:42.144Z,5.30
2018-05-14T17:54:36.528Z,6.80
2018-05-14T17:59:30.965Z,7.67
2018-05-14T18:04:26.244Z,6.07
2018-05-14T18:09:20.594Z,5.93
2018-05-14T18:14:15.728Z,5.73
2018-05-14T18:19:10.843Z,4.83
2018-05-14T18:24:05.976Z,7.73
2018-05-14T18:29:06.142Z,7.63
2018-05-14T18:34:05.740Z,11.20
2018-05-14T18:39:00.141Z,4.27
2018-05-14T18:44:10.041Z,4.87
2018-05-14T18:49:04.558Z,7.17
2018-05-14T18:53:59.278Z,9.43
2018-05-14T18:58:53.638Z,6.57
2018-05-14T19:03:48.453Z,5.47
2018-05-14T19:08:42.839Z,7.70
2018-05-14T19:13:37.962Z,5.70
2018-05-14T19:18:32.590Z,6.03
2018-05-14T19:23:32.332Z,7.33
2018-05-14T19:28:32.143Z,12.47
2018-05-14T19:33:31.804Z,9.73
2018-05-14T19:38:26.308Z,6.80
2018-05-14T19:43:20.460Z,5.63
2018-05-14T19:48:15.623Z,6.83
2018-05-14T19:53:09.987Z,5.20
2018-05-14T19:58:05.596Z,9.37
2018-05-14T20:03:00.016Z,11.70
2018-05-14T20:08:08.066Z,6.23
2018-05-14T20:13:13.180Z,8.97
2018-05-14T20:18:07.536Z,6.50
2018-05-14T20:23:01.901Z,6.07
2018-05-14T20:27:57.152Z,9.23
2018-05-14T20:32:51.685Z,9.10
2018-05-14T20:37:46.331Z,5.50
2018-05-14T20:42:41.603Z,6.57
2018-05-14T20:47:36.098Z,5.57
2018-05-14T20:52:30.678Z,9.17
2018-05-14T20:57:26.008Z,5.43
2018-05-14T21:02:21.110Z,5.37
2018-05-14T21:07:16.421Z,4.90
2018-05-14T21:12:11.725Z,4.30
2018-05-14T21:17:06.400Z,8.57
2018-05-14T21:22:00.771Z,8.17
2018-05-14T21:27:12.592Z,5.67
2018-05-14T21:32:17.990Z,5.73
2018-05-14T21:37:25.976Z,8.43
2018-05-14T21:42:30.427Z,8.43
2018-05-14T21:47:34.264Z,7.13
2018-05-14T21:52:47.706Z,5.37
2018-05-14T21:57:50.006Z,9.20
2018-05-14T22:02:56.050Z,8.13
2018-05-14T22:07:58.588Z,6.63
2018-05-14T22:13:13.833Z,6.17
2018-05-14T22:18:23.470Z,13.73
2018-05-14T22:23:33.327Z,6.70
2018-05-14T22:28:40.888Z,7.07
2018-05-14T22:33:51.248Z,4.83
2018-05-14T22:39:01.076Z,7.53
2018-05-14T22:44:10.254Z,8.50
2018-05-14T22:49:04.743Z,8.20
2018-05-14T22:53:59.158Z,6.33
2018-05-14T22:58:53.502Z,9.50
2018-05-14T23:03:47.891Z,6.23
2018-05-14T23:08:42.357Z,7.03
2018-05-14T23:13:36.756Z,7.63
2018-05-14T23:18:31.138Z,6.27
2018-05-14T23:23:26.310Z,5.73
2018-05-14T23:28:20.662Z,6.60
2018-05-14T23:33:14.985Z,5.70
2018-05-14T23:38:09.329Z,6.93
2018-05-14T23:43:03.671Z,5.57
2018-05-14T23:47:58.010Z,10.80
2018-05-14T23:52:52.372Z,9.77
2018-05-14T23:57:46.715Z,7.87
